Time;durP1;ratioP1;P1;durP2;ratioP2;P2;SDS_P1;SDS_P2;PMS_P1;PMS_P2;Temp;Humidity;BMP_temperature;BMP_pressure;BME280_temperature;BME280_humidity;BME280_pressure;Samples;Min_cycle;Max_cycle;Signal;HPM_P1;HPM_P2
2021/11/05 00:00:54;;;;;;;;;4.00;2.00;;;;;10.75;72.66;101606.16;5015346;28;45381;-67
2021/11/05 00:03:20;;;;;;;;;5.25;4.75;;;;;10.74;72.10;101612.34;5023014;28;45249;-67
2021/11/05 00:05:46;;;;;;;;;2.50;2.00;;;;;10.73;72.67;101608.84;5022365;28;45442;-66
2021/11/05 00:08:11;;;;;;;;;4.25;3.00;;;;;10.72;72.60;101625.59;5004969;28;45433;-68
2021/11/05 00:10:40;;;;;;;;;3.25;2.50;;;;;10.72;72.11;101627.38;5029997;28;45553;-65
2021/11/05 00:13:07;;;;;;;;;2.00;1.00;;;;;10.72;72.30;101622.09;5031392;28;45324;-66
2021/11/05 00:15:33;;;;;;;;;2.00;2.00;;;;;10.70;72.32;101623.97;5031570;28;45529;-67
2021/11/05 00:17:59;;;;;;;;;3.50;2.00;;;;;10.69;72.34;101622.25;5027627;28;45660;-65
2021/11/05 00:20:25;;;;;;;;;2.00;2.00;;;;;10.69;72.50;101622.25;5029920;28;45202;-71
2021/11/05 00:22:51;;;;;;;;;6.00;2.75;;;;;10.70;72.38;101619.53;5032863;28;45225;-68
2021/11/05 00:25:17;;;;;;;;;5.00;3.25;;;;;10.69;72.43;101625.75;5030184;28;45355;-65
2021/11/05 00:27:43;;;;;;;;;8.50;6.50;;;;;10.66;72.43;101619.72;5019228;28;45436;-66
2021/11/05 00:30:11;;;;;;;;;2.00;1.75;;;;;10.65;72.65;101625.94;5015604;28;45450;-66
2021/11/05 00:32:37;;;;;;;;;4.00;3.00;;;;;10.62;72.18;101619.88;5013428;28;45539;-68
2021/11/05 00:35:03;;;;;;;;;5.00;3.50;;;;;10.62;71.86;101619.03;5016384;28;45293;-64
2021/11/05 00:37:29;;;;;;;;;2.75;2.75;;;;;10.60;72.01;101623.53;5012498;28;45448;-67
2021/11/05 00:39:54;;;;;;;;;4.25;3.00;;;;;10.57;72.31;101624.50;5000337;28;45557;-67
2021/11/05 00:42:20;;;;;;;;;4.00;2.50;;;;;10.55;72.59;101621.09;5013851;28;45478;-65
2021/11/05 00:44:45;;;;;;;;;5.25;3.00;;;;;10.54;72.30;101621.16;5015330;28;45687;-67
2021/11/05 00:47:11;;;;;;;;;3.00;3.00;;;;;10.57;72.29;101623.66;5013273;28;46121;-68
2021/11/05 00:49:37;;;;;;;;;4.50;3.00;;;;;10.56;72.35;101629.84;5017091;28;45432;-67
2021/11/05 00:52:03;;;;;;;;;3.75;2.00;;;;;10.56;72.41;101635.09;5012630;28;45506;-65
2021/11/05 00:54:29;;;;;;;;;3.00;3.00;;;;;10.56;71.98;101643.88;5015308;28;45397;-65
2021/11/05 00:56:55;;;;;;;;;4.75;3.75;;;;;10.58;72.17;101641.16;5011856;28;46147;-65
2021/11/05 00:59:20;;;;;;;;;3.00;3.00;;;;;10.60;72.33;101642.81;5012591;28;45250;-65
2021/11/05 01:01:46;;;;;;;;;6.25;3.25;;;;;10.61;72.25;101648.94;5012758;28;45424;-67
2021/11/05 01:04:12;;;;;;;;;4.50;2.75;;;;;10.59;71.73;101656.94;5013272;28;45329;-65
2021/11/05 01:06:37;;;;;;;;;3.00;3.00;;;;;10.60;72.44;101657.78;5012050;28;45766;-65
2021/11/05 01:09:04;;;;;;;;;3.75;2.75;;;;;10.58;72.10;101665.72;5012487;28;45237;-63
2021/11/05 01:11:30;;;;;;;;;8.00;3.00;;;;;10.58;71.77;101663.09;5010692;28;45327;-62
2021/11/05 01:13:55;;;;;;;;;6.25;4.00;;;;;10.57;71.86;101668.44;5014177;28;45450;-67
2021/11/05 01:16:22;;;;;;;;;5.50;3.00;;;;;10.58;72.44;101668.34;5011889;28;45549;-64
2021/11/05 01:18:48;;;;;;;;;3.00;3.00;;;;;10.59;71.70;101667.47;5012496;28;45387;-65
2021/11/05 01:21:15;;;;;;;;;3.00;3.00;;;;;10.59;71.61;101675.38;5012866;28;45404;-63
2021/11/05 01:23:40;;;;;;;;;3.50;3.50;;;;;10.59;71.41;101674.50;5013441;28;45455;-64
2021/11/05 01:26:06;;;;;;;;;3.00;2.00;;;;;10.56;71.76;101672.84;5011773;28;45581;-68
2021/11/05 01:28:32;;;;;;;;;5.75;2.50;;;;;10.55;71.93;101675.56;5013935;28;45494;-66
2021/11/05 01:30:57;;;;;;;;;2.75;2.75;;;;;10.53;71.63;101682.69;5011203;28;45348;-65
2021/11/05 01:33:23;;;;;;;;;2.00;2.00;;;;;10.48;72.07;101685.50;5012779;28;45240;-61
2021/11/05 01:35:49;;;;;;;;;3.00;3.00;;;;;10.45;71.83;101683.00;5013423;28;46244;-68
2021/11/05 01:38:15;;;;;;;;;4.25;3.00;;;;;10.45;72.21;101682.16;5013632;28;46497;-67
2021/11/05 01:40:42;;;;;;;;;4.25;2.50;;;;;10.42;72.17;101693.66;5011923;28;45430;-66
2021/11/05 01:43:09;;;;;;;;;6.75;3.50;;;;;10.42;71.79;101687.53;5002360;28;45560;-64
2021/11/05 01:45:35;;;;;;;;;3.50;3.00;;;;;10.43;72.16;101689.28;5012484;28;45792;-66
2021/11/05 01:48:01;;;;;;;;;4.25;2.50;;;;;10.46;72.25;101697.91;5011904;28;45446;-66
2021/11/05 01:50:27;;;;;;;;;3.50;2.50;;;;;10.47;71.62;101693.47;5011687;28;45382;-66
2021/11/05 01:52:55;;;;;;;;;7.75;5.75;;;;;10.48;72.04;101701.31;5013946;28;45534;-66
2021/11/05 01:55:20;;;;;;;;;3.00;3.00;;;;;10.48;71.48;101698.66;5012934;28;45386;-66
2021/11/05 01:57:46;;;;;;;;;7.00;4.00;;;;;10.46;72.11;101697.91;5013003;28;45309;-66
2021/11/05 02:00:16;;;;;;;;;7.00;3.00;;;;;10.48;71.96;101706.56;5011935;28;45507;-66
2021/11/05 02:02:42;;;;;;;;;5.50;2.75;;;;;10.50;72.07;101704.72;5012886;28;45377;-65
2021/11/05 02:05:07;;;;;;;;;7.00;4.00;;;;;10.50;71.69;101706.50;5015337;28;45929;-65
2021/11/05 02:07:35;;;;;;;;;9.25;4.50;;;;;10.51;71.88;101714.38;5016074;28;45292;-66
2021/11/05 02:10:03;;;;;;;;;7.75;5.50;;;;;10.50;72.19;101707.34;5011710;28;45436;-65
2021/11/05 02:12:32;;;;;;;;;5.00;2.00;;;;;10.51;71.84;101706.47;5014479;28;45487;-65
2021/11/05 02:14:59;;;;;;;;;5.75;3.00;;;;;10.50;71.67;101719.69;5012635;28;45342;-65
2021/11/05 02:17:25;;;;;;;;;5.75;3.00;;;;;10.50;71.82;101709.13;5016733;28;45266;-66
2021/11/05 02:19:52;;;;;;;;;5.00;3.00;;;;;10.46;71.59;101713.69;5014332;28;45263;-66
2021/11/05 02:22:18;;;;;;;;;5.25;3.00;;;;;10.44;71.91;101717.31;5014989;28;45341;-66
2021/11/05 02:24:44;;;;;;;;;4.50;3.25;;;;;10.40;71.95;101715.72;5011779;28;45410;-66
2021/11/05 02:27:09;;;;;;;;;8.25;3.25;;;;;10.37;71.53;101719.38;5011518;28;45615;-66
2021/11/05 02:29:35;;;;;;;;;7.50;4.50;;;;;10.34;72.02;101720.31;5012102;28;45273;-66
2021/11/05 02:32:04;;;;;;;;;2.75;2.75;;;;;10.34;71.62;101720.31;5012733;28;45551;-66
2021/11/05 02:34:29;;;;;;;;;4.00;2.25;;;;;10.37;71.90;101723.78;4993635;28;45997;-66
2021/11/05 02:36:55;;;;;;;;;5.25;3.50;;;;;10.37;71.60;101731.69;5013433;28;45410;-66
2021/11/05 02:39:23;;;;;;;;;6.75;2.75;;;;;10.35;72.05;101734.38;5000028;28;45490;-66
2021/11/05 02:41:50;;;;;;;;;2.50;2.50;;;;;10.33;71.67;101729.16;5014592;28;45459;-66
2021/11/05 02:44:16;;;;;;;;;2.00;2.00;;;;;10.32;71.75;101735.34;5011188;28;46678;-66
2021/11/05 02:46:42;;;;;;;;;4.00;3.25;;;;;10.31;71.65;101735.41;5014625;28;45775;-66
2021/11/05 02:49:09;;;;;;;;;2.00;2.00;;;;;10.31;71.53;101738.06;5011507;28;45253;-66
2021/11/05 02:51:38;;;;;;;;;3.50;2.00;;;;;10.29;72.08;101734.63;5014095;28;45563;-66
2021/11/05 02:54:04;;;;;;;;;8.50;3.00;;;;;10.27;72.03;101736.47;5013202;28;45551;-66
2021/11/05 02:56:30;;;;;;;;;3.50;2.25;;;;;10.27;71.91;101739.97;5015186;28;45331;-66
2021/11/05 02:58:58;;;;;;;;;3.75;3.25;;;;;10.24;71.68;101749.75;5014332;28;45392;-66
2021/11/05 03:01:25;;;;;;;;;6.00;3.50;;;;;10.23;71.61;101748.91;5014526;28;45459;-66
2021/11/05 03:03:50;;;;;;;;;3.75;2.75;;;;;10.25;71.94;101756.72;5011350;28;45620;-66
2021/11/05 03:06:16;;;;;;;;;7.25;3.25;;;;;10.23;71.56;101755.94;5011499;28;45322;-66
2021/11/05 03:08:43;;;;;;;;;3.00;1.50;;;;;10.23;71.56;101753.31;5011656;28;45533;-66
2021/11/05 03:11:12;;;;;;;;;2.00;2.00;;;;;10.22;71.88;101754.22;5011357;28;45480;-66
2021/11/05 03:13:40;;;;;;;;;5.00;3.00;;;;;10.20;71.30;101754.28;5011343;28;45452;-66
2021/11/05 03:16:05;;;;;;;;;7.00;3.50;;;;;10.24;71.81;101760.28;5011938;28;45213;-67
2021/11/05 03:18:34;;;;;;;;;5.50;2.75;;;;;10.20;71.94;101764.81;5013009;28;45244;-67
2021/11/05 03:21:00;;;;;;;;;3.75;2.25;;;;;10.22;71.99;101768.25;5013683;28;45450;-68
2021/11/05 03:23:25;;;;;;;;;7.00;2.00;;;;;10.22;71.92;101765.63;5014377;28;45382;-67
2021/11/05 03:25:51;;;;;;;;;7.00;2.00;;;;;10.23;71.55;101775.25;5015641;28;45339;-67
2021/11/05 03:28:16;;;;;;;;;7.75;3.00;;;;;10.22;71.53;101768.25;5014254;28;45257;-68
2021/11/05 03:30:42;;;;;;;;;2.00;2.00;;;;;10.23;71.79;101769.97;5015992;28;45394;-68
2021/11/05 03:33:07;;;;;;;;;5.00;3.00;;;;;10.23;71.38;101777.88;5017541;28;46134;-68
2021/11/05 03:35:33;;;;;;;;;4.00;3.00;;;;;10.23;71.80;101783.13;5015728;28;45210;-68
2021/11/05 03:37:59;;;;;;;;;4.50;3.25;;;;;10.22;71.39;101777.91;5013542;28;45222;-68
2021/11/05 03:40:24;;;;;;;;;3.00;2.00;;;;;10.22;71.55;101786.69;5014247;28;45561;-68
2021/11/05 03:42:52;;;;;;;;;2.25;2.25;;;;;10.25;71.58;101790.97;5014597;28;45361;-68
2021/11/05 03:45:19;;;;;;;;;4.00;2.25;;;;;10.28;71.93;101799.63;5015540;28;45551;-68
2021/11/05 03:47:45;;;;;;;;;3.00;3.00;;;;;10.29;71.35;101800.47;5015984;28;45698;-68
2021/11/05 03:50:11;;;;;;;;;2.00;2.00;;;;;10.30;71.90;101808.31;5016344;28;45567;-68
2021/11/05 03:52:36;;;;;;;;;3.75;3.25;;;;;10.32;71.69;101813.50;5016405;28;46089;-68
2021/11/05 03:55:04;;;;;;;;;2.50;2.25;;;;;10.33;71.51;101816.06;5018835;28;45890;-68
2021/11/05 03:57:29;;;;;;;;;3.50;2.00;;;;;10.32;71.17;101814.34;5016411;28;45325;-68
2021/11/05 03:59:54;;;;;;;;;4.50;2.50;;;;;10.32;71.54;101819.63;5011963;28;45293;-68
2021/11/05 04:02:20;;;;;;;;;2.00;1.00;;;;;10.31;71.21;101819.69;5012314;28;45292;-68
2021/11/05 04:04:46;;;;;;;;;5.75;1.25;;;;;10.30;71.51;101813.56;5013097;28;45318;-68
2021/11/05 04:07:11;;;;;;;;;5.25;2.00;;;;;10.28;71.17;101825.94;5004936;28;45258;-68
2021/11/05 04:09:37;;;;;;;;;4.75;2.00;;;;;10.28;70.93;101823.31;5015460;28;45499;-68
2021/11/05 04:12:02;;;;;;;;;6.25;3.00;;;;;10.31;71.21;101824.97;5010695;28;45412;-67
2021/11/05 04:14:28;;;;;;;;;3.25;3.25;;;;;10.33;70.89;101839.78;5014131;28;45628;-68
2021/11/05 04:16:53;;;;;;;;;2.00;2.00;;;;;10.33;71.25;101842.41;5012241;28;45458;-68
2021/11/05 04:19:19;;;;;;;;;3.50;2.00;;;;;10.34;70.95;101845.88;5013903;28;45357;-68
2021/11/05 04:21:44;;;;;;;;;3.00;2.75;;;;;10.38;70.83;101849.28;5013875;28;45338;-68
2021/11/05 04:24:10;;;;;;;;;2.50;1.75;;;;;10.38;70.84;101854.53;5015179;28;45355;-68
2021/11/05 04:26:36;;;;;;;;;4.00;2.25;;;;;10.39;70.78;101862.38;5017991;28;45322;-68
2021/11/05 04:29:02;;;;;;;;;2.75;1.75;;;;;10.39;70.58;101858.88;5034655;28;45621;-68
2021/11/05 04:31:28;;;;;;;;;4.00;2.75;;;;;10.37;70.88;101856.31;5032754;28;45274;-68
2021/11/05 04:33:53;;;;;;;;;6.00;3.00;;;;;10.37;71.13;101863.38;5035740;28;45272;-68
2021/11/05 04:36:21;;;;;;;;;3.00;2.75;;;;;10.36;71.03;101861.66;5039242;28;45380;-68
2021/11/05 04:38:47;;;;;;;;;2.25;1.00;;;;;10.36;70.68;101869.56;5032832;28;45373;-67
2021/11/05 04:41:12;;;;;;;;;2.25;2.00;;;;;10.33;70.53;101873.16;5033315;28;45432;-67
2021/11/05 04:43:38;;;;;;;;;3.25;1.75;;;;;10.31;70.63;101886.38;5017729;28;45266;-68
2021/11/05 04:46:03;;;;;;;;;3.75;2.00;;;;;10.32;70.58;101887.25;5037614;28;46523;-68
2021/11/05 04:48:29;;;;;;;;;4.50;2.00;;;;;10.34;70.23;101891.53;5033444;28;45411;-68
2021/11/05 04:50:54;;;;;;;;;3.75;2.75;;;;;10.37;70.18;101890.56;5033209;28;45550;-68
2021/11/05 04:53:20;;;;;;;;;3.00;3.00;;;;;10.38;70.47;101897.53;5034432;28;45427;-68
2021/11/05 04:55:46;;;;;;;;;4.00;2.00;;;;;10.38;70.39;101899.31;5033082;28;45425;-68
2021/11/05 04:58:11;;;;;;;;;2.25;1.25;;;;;10.38;70.37;101897.53;5036885;28;45670;-68
2021/11/05 05:00:37;;;;;;;;;3.75;2.00;;;;;10.39;70.59;101893.97;5034524;28;45415;-68
2021/11/05 05:03:03;;;;;;;;;2.25;2.25;;;;;10.39;70.47;101901.88;5037138;28;45548;-68
2021/11/05 05:05:29;;;;;;;;;3.25;1.00;;;;;10.41;70.38;101907.09;5035833;28;45455;-68
2021/11/05 05:07:56;;;;;;;;;5.25;2.00;;;;;10.41;69.85;101902.66;5036172;28;45475;-68
2021/11/05 05:10:23;;;;;;;;;1.75;1.75;;;;;10.43;70.29;101910.53;5032674;28;45663;-68
2021/11/05 05:12:48;;;;;;;;;1.00;1.00;;;;;10.44;70.34;101909.63;5032623;28;45400;-68
2021/11/05 05:15:15;;;;;;;;;2.75;2.75;;;;;10.46;70.15;101907.78;5033291;28;45300;-68
2021/11/05 05:17:41;;;;;;;;;4.00;1.50;;;;;10.49;70.36;101919.03;5035119;28;45517;-68
2021/11/05 05:20:10;;;;;;;;;1.25;1.00;;;;;10.47;70.30;101915.59;5034523;28;45673;-68
2021/11/05 05:22:37;;;;;;;;;2.00;2.00;;;;;10.47;69.98;101915.59;5035787;28;45311;-68
2021/11/05 05:25:04;;;;;;;;;5.75;2.75;;;;;10.47;69.82;101909.47;5032744;28;45166;-68
2021/11/05 05:27:30;;;;;;;;;4.25;1.75;;;;;10.48;70.03;101919.09;5026638;28;45583;-68
2021/11/05 05:29:56;;;;;;;;;4.00;1.75;;;;;10.47;70.11;101926.16;5020893;28;45598;-68
2021/11/05 05:32:22;;;;;;;;;2.75;2.50;;;;;10.49;69.38;101931.34;5020723;28;45471;-68
2021/11/05 05:34:48;;;;;;;;;3.50;2.00;;;;;10.48;69.52;101930.50;5019662;28;45403;-68
2021/11/05 05:37:13;;;;;;;;;2.50;1.00;;;;;10.48;69.95;101930.50;5020959;28;45435;-68
2021/11/05 05:39:39;;;;;;;;;2.75;1.00;;;;;10.47;69.54;101930.56;5020692;28;45532;-68
2021/11/05 05:42:05;;;;;;;;;1.50;1.50;;;;;10.47;69.71;101930.56;5020495;28;45371;-70
2021/11/05 05:44:30;;;;;;;;;3.50;2.00;;;;;10.49;69.25;101939.25;5020694;28;45269;-68
2021/11/05 05:46:56;;;;;;;;;2.00;2.00;;;;;10.49;69.26;101945.38;5020900;28;45226;-68
2021/11/05 05:49:22;;;;;;;;;3.50;0.75;;;;;10.49;69.69;101941.88;5020570;28;45688;-68
2021/11/05 05:51:47;;;;;;;;;7.75;2.00;;;;;10.49;69.54;101947.16;5020174;28;45253;-68
2021/11/05 05:54:13;;;;;;;;;1.00;1.00;;;;;10.50;69.11;101956.75;5020741;28;45293;-68
2021/11/05 05:56:38;;;;;;;;;1.50;1.00;;;;;10.50;69.08;101955.00;5020388;28;45383;-68
2021/11/05 05:59:04;;;;;;;;;7.00;3.25;;;;;10.53;69.39;101965.44;5020256;28;45954;-68
2021/11/05 06:01:29;;;;;;;;;2.00;0.50;;;;;10.53;68.97;101967.19;5020537;28;45289;-68
2021/11/05 06:03:59;;;;;;;;;3.00;1.00;;;;;10.52;69.15;101963.72;5021055;28;45320;-68
2021/11/05 06:06:24;;;;;;;;;1.00;1.00;;;;;10.56;69.18;101970.56;5021249;28;45376;-68
2021/11/05 06:08:50;;;;;;;;;3.00;1.75;;;;;10.53;68.86;101972.47;5020209;28;45400;-68
2021/11/05 06:11:15;;;;;;;;;1.00;0.00;;;;;10.54;68.88;101976.81;5017401;28;45245;-68
2021/11/05 06:13:41;;;;;;;;;1.50;1.00;;;;;10.53;68.89;101983.00;5020670;28;45211;-68
2021/11/05 06:16:07;;;;;;;;;3.00;1.75;;;;;10.54;69.05;101990.00;5020475;28;46199;-68
2021/11/05 06:18:33;;;;;;;;;2.25;1.00;;;;;10.53;68.82;101983.88;5019917;28;45385;-68
2021/11/05 06:20:59;;;;;;;;;4.00;3.00;;;;;10.54;68.93;101987.34;5020052;28;45344;-68
2021/11/05 06:23:24;;;;;;;;;1.75;1.75;;;;;10.54;69.48;101987.34;5020221;28;45380;-68
2021/11/05 06:25:50;;;;;;;;;2.25;1.75;;;;;10.56;69.27;101996.91;5019836;28;45300;-67
2021/11/05 06:28:15;;;;;;;;;1.50;1.50;;;;;10.56;69.14;101996.91;5032621;28;45897;-68
2021/11/05 06:30:41;;;;;;;;;1.00;1.00;;;;;10.55;68.87;102003.09;5037298;28;45649;-68
2021/11/05 06:33:06;;;;;;;;;3.25;1.75;;;;;10.53;68.89;102004.09;5034486;28;45400;-68
2021/11/05 06:35:32;;;;;;;;;3.50;2.00;;;;;10.52;69.16;102012.91;5034224;28;45757;-68
2021/11/05 06:37:57;;;;;;;;;4.50;2.75;;;;;10.51;69.23;102012.06;5034307;28;46287;-67
2021/11/05 06:40:23;;;;;;;;;6.75;3.00;;;;;10.53;69.04;102019.91;5037314;28;45379;-68
2021/11/05 06:42:49;;;;;;;;;3.25;3.00;;;;;10.54;69.26;102024.25;5034498;28;46049;-68
2021/11/05 06:45:15;;;;;;;;;2.50;2.00;;;;;10.54;69.12;102018.97;5037018;28;45560;-68
2021/11/05 06:47:41;;;;;;;;;8.00;2.50;;;;;10.56;69.00;102032.94;5034125;28;46351;-68
2021/11/05 06:50:09;;;;;;;;;3.50;3.00;;;;;10.57;68.76;102035.50;5037081;28;45303;-68
2021/11/05 06:52:35;;;;;;;;;4.75;2.00;;;;;10.58;68.76;102039.00;5037120;28;45398;-68
2021/11/05 06:55:03;;;;;;;;;6.25;2.00;;;;;10.59;68.61;102043.38;5036838;28;45561;-68
2021/11/05 06:57:28;;;;;;;;;6.00;2.00;;;;;10.58;68.71;102053.03;5033800;28;46016;-68
2021/11/05 06:59:56;;;;;;;;;4.00;1.00;;;;;10.59;69.16;102048.66;5020212;28;45572;-68
2021/11/05 07:02:22;;;;;;;;;2.00;1.00;;;;;10.60;68.74;102056.50;5038156;28;45368;-68
2021/11/05 07:04:47;;;;;;;;;4.50;2.00;;;;;10.62;68.74;102070.47;5044070;28;45243;-68
2021/11/05 07:07:13;;;;;;;;;2.00;1.75;;;;;10.63;68.82;102071.31;5043257;28;46167;-68
2021/11/05 07:09:39;;;;;;;;;3.50;1.25;;;;;10.65;68.37;102077.38;5043888;28;45419;-70
2021/11/05 07:12:05;;;;;;;;;2.00;2.00;;;;;10.67;68.46;102074.72;5043043;28;45352;-68
2021/11/05 07:14:31;;;;;;;;;3.50;2.00;;;;;10.66;68.98;102078.22;5043676;28;45369;-68
2021/11/05 07:16:56;;;;;;;;;4.50;2.25;;;;;10.67;68.89;102093.16;5043010;28;46426;-69
2021/11/05 07:19:24;;;;;;;;;2.00;1.00;;;;;10.64;68.71;102088.84;5038056;28;46305;-69
2021/11/05 07:21:58;;;;;;;;;3.50;2.00;;;;;10.62;68.36;102096.81;5042940;28;45299;-69
2021/11/05 07:24:26;;;;;;;;;9.00;3.00;;;;;10.59;68.41;102098.72;5042576;28;45409;-69
2021/11/05 07:26:53;;;;;;;;;5.25;3.00;;;;;10.59;69.03;102107.47;5040612;28;46195;-69
2021/11/05 07:29:23;;;;;;;;;4.50;2.25;;;;;10.60;68.71;102117.09;5040115;28;45343;-69
2021/11/05 07:31:49;;;;;;;;;4.50;3.00;;;;;10.61;69.08;102121.44;5043054;28;45445;-69
2021/11/05 07:34:15;;;;;;;;;6.25;4.50;;;;;10.61;69.00;102128.50;5039656;28;45363;-71
2021/11/05 07:36:40;;;;;;;;;4.75;4.75;;;;;10.59;68.99;102127.69;5036441;28;45525;-69
2021/11/05 07:39:07;;;;;;;;;4.75;3.25;;;;;10.57;68.94;102130.38;5035793;28;45422;-69
2021/11/05 07:41:33;;;;;;;;;7.50;5.25;;;;;10.57;68.86;102138.28;5034734;28;45332;-69
2021/11/05 07:43:59;;;;;;;;;4.50;3.50;;;;;10.51;68.47;102143.78;5036483;28;45377;-66
2021/11/05 07:46:24;;;;;;;;;7.00;6.00;;;;;10.49;68.58;102144.75;5037360;28;45304;-68
2021/11/05 07:48:50;;;;;;;;;6.25;3.00;;;;;10.49;69.02;102145.59;5039460;28;45426;-68
2021/11/05 07:51:16;;;;;;;;;8.00;4.00;;;;;10.53;69.07;102154.25;5037062;28;45370;-68
2021/11/05 07:53:41;;;;;;;;;7.25;2.25;;;;;10.60;68.63;102158.41;5040122;28;45331;-68
2021/11/05 07:56:07;;;;;;;;;5.25;3.00;;;;;10.66;68.79;102166.06;5038165;28;46046;-68
2021/11/05 07:58:32;;;;;;;;;8.50;4.75;;;;;10.71;68.48;102163.25;5038454;28;45363;-68
2021/11/05 08:00:58;;;;;;;;;6.50;6.00;;;;;10.75;68.21;102168.38;5037636;28;45214;-68
2021/11/05 08:03:23;;;;;;;;;11.50;7.00;;;;;10.80;68.22;102176.94;5039568;28;45337;-68
2021/11/05 08:05:49;;;;;;;;;5.75;4.00;;;;;10.82;68.02;102177.78;5036527;28;45216;-68
2021/11/05 08:08:15;;;;;;;;;3.25;3.25;;;;;10.83;67.82;102176.84;5033738;28;45438;-68
2021/11/05 08:10:41;;;;;;;;;6.75;4.50;;;;;10.85;67.96;102179.44;5034284;28;45498;-68
2021/11/05 08:13:06;;;;;;;;;6.50;4.00;;;;;10.88;67.84;102190.72;5038099;28;45363;-68
2021/11/05 08:15:32;;;;;;;;;7.75;4.00;;;;;10.94;68.33;102189.63;5036040;28;45992;-68
2021/11/05 08:17:58;;;;;;;;;11.25;4.00;;;;;10.99;68.06;102202.66;5038763;28;45372;-68
2021/11/05 08:20:23;;;;;;;;;5.00;4.00;;;;;11.05;67.58;102208.53;5036494;28;45580;-68
2021/11/05 08:22:49;;;;;;;;;8.25;3.00;;;;;11.05;67.28;102200.63;5039075;28;45608;-68
2021/11/05 08:25:17;;;;;;;;;7.75;2.75;;;;;11.08;67.50;102208.44;5036494;28;45409;-68
2021/11/05 08:27:43;;;;;;;;;3.00;2.75;;;;;11.10;67.35;102196.03;5036670;28;45473;-68
2021/11/05 08:30:13;;;;;;;;;5.50;4.00;;;;;11.09;67.31;102207.50;5033515;28;45604;-68
2021/11/05 08:32:39;;;;;;;;;4.75;4.75;;;;;11.11;67.21;102204.81;5036393;28;45376;-67
2021/11/05 08:35:07;;;;;;;;;7.75;2.50;;;;;11.12;67.05;102209.16;5040328;28;45993;-68
2021/11/05 08:37:33;;;;;;;;;2.25;2.25;;;;;11.16;67.17;102216.91;5037946;28;45372;-68
2021/11/05 08:39:58;;;;;;;;;2.00;1.00;;;;;11.17;66.47;102218.63;5017370;28;45328;-68
2021/11/05 08:42:25;;;;;;;;;3.75;1.50;;;;;11.18;66.89;102212.44;5032457;28;45290;-68
2021/11/05 08:44:50;;;;;;;;;3.00;2.00;;;;;11.24;66.30;102213.97;5033057;28;46002;-68
2021/11/05 08:47:17;;;;;;;;;3.25;1.00;;;;;11.25;66.22;102226.25;5038503;28;45386;-68
2021/11/05 08:49:43;;;;;;;;;3.00;1.00;;;;;11.26;66.76;102229.75;5039266;28;45447;-67
2021/11/05 08:52:08;;;;;;;;;1.00;1.00;;;;;11.30;66.89;102232.22;5042064;28;45305;-67
2021/11/05 08:54:35;;;;;;;;;2.25;2.00;;;;;11.35;65.92;102238.16;5041836;28;46308;-68
2021/11/05 08:57:00;;;;;;;;;4.00;3.25;;;;;11.38;66.29;102240.69;5041848;28;45312;-67
2021/11/05 08:59:26;;;;;;;;;2.00;2.00;;;;;11.44;66.15;102245.72;5042101;28;45316;-67
2021/11/05 09:01:54;;;;;;;;;3.00;2.00;;;;;11.45;65.41;102246.56;5041901;28;45245;-68
2021/11/05 09:04:20;;;;;;;;;4.75;1.25;;;;;11.42;65.59;102252.84;5041752;28;45447;-67
2021/11/05 09:06:47;;;;;;;;;5.00;2.00;;;;;11.43;65.62;102248.41;5041721;28;45255;-67
2021/11/05 09:09:16;;;;;;;;;3.25;1.25;;;;;11.49;65.67;102255.25;5041708;28;45300;-67
2021/11/05 09:11:42;;;;;;;;;3.25;3.00;;;;;11.55;66.13;102261.16;5041565;28;45425;-68
2021/11/05 09:14:08;;;;;;;;;3.00;3.00;;;;;11.61;65.97;102260.91;5041588;28;46125;-67
2021/11/05 09:16:34;;;;;;;;;1.75;1.50;;;;;11.67;65.34;102273.00;5041829;28;45258;-68
2021/11/05 09:19:02;;;;;;;;;5.25;3.00;;;;;11.67;65.30;102273.84;5041662;28;45302;-67
2021/11/05 09:21:28;;;;;;;;;2.25;1.00;;;;;11.66;65.77;102268.63;5042012;28;45241;-67
2021/11/05 09:23:54;;;;;;;;;2.25;2.25;;;;;11.67;65.39;102267.72;5041417;28;45972;-67
2021/11/05 09:26:22;;;;;;;;;1.00;1.00;;;;;11.66;65.24;102279.19;5040507;28;45390;-67
2021/11/05 09:28:48;;;;;;;;;2.00;2.00;;;;;11.64;65.33;102279.25;5041641;28;45344;-67
2021/11/05 09:31:13;;;;;;;;;3.75;3.00;;;;;11.66;65.08;102284.47;5041548;28;45257;-67
2021/11/05 09:33:39;;;;;;;;;5.00;3.00;;;;;11.70;65.61;102291.38;5040944;28;45296;-67
2021/11/05 09:36:05;;;;;;;;;3.00;3.00;;;;;11.74;65.35;102287.66;5041035;28;45305;-67
2021/11/05 09:38:30;;;;;;;;;4.00;3.00;;;;;11.79;65.17;102290.16;5041619;28;45451;-67
2021/11/05 09:40:56;;;;;;;;;4.00;3.00;;;;;11.84;65.28;102283.78;5041278;28;45235;-66
2021/11/05 09:43:22;;;;;;;;;2.00;2.00;;;;;11.99;64.67;102292.88;5041251;28;45304;-67
2021/11/05 09:45:48;;;;;;;;;1.00;1.00;;;;;12.08;63.72;102295.13;5041107;28;45147;-67
2021/11/05 09:48:14;;;;;;;;;2.00;1.25;;;;;12.18;63.82;102295.63;5041605;28;45399;-67
2021/11/05 09:50:41;;;;;;;;;2.00;2.00;;;;;12.30;63.65;102298.63;5033233;28;45265;-67
2021/11/05 09:53:07;;;;;;;;;1.00;1.00;;;;;12.40;63.96;102300.88;5041160;28;45286;-67
2021/11/05 09:55:42;;;;;;;;;1.75;1.00;;;;;12.48;62.81;102311.97;5022884;28;45342;-67
2021/11/05 09:58:08;;;;;;;;;3.25;2.00;;;;;12.47;62.89;102307.63;5041028;28;45212;-67
2021/11/05 10:00:33;;;;;;;;;4.00;1.50;;;;;12.47;62.92;102312.91;5041275;28;45221;-67
2021/11/05 10:02:59;;;;;;;;;2.75;2.00;;;;;12.48;63.03;102320.78;5040953;28;46228;-67
2021/11/05 10:05:25;;;;;;;;;2.25;1.00;;;;;12.54;63.20;102322.28;5040958;28;45231;-67
2021/11/05 10:07:57;;;;;;;;;4.00;1.75;;;;;12.56;62.83;102325.75;5041291;28;45306;-67
2021/11/05 10:10:30;;;;;;;;;1.50;1.00;;;;;12.53;62.70;102331.16;5040894;28;45367;-67
2021/11/05 10:13:23;;;;;;;;;1.00;1.00;;;;;12.49;62.67;102335.72;5022736;28;47841;-67
2021/11/05 10:15:50;;;;;;;;;1.50;1.00;;;;;12.50;62.21;102334.78;5040967;28;45272;-67
2021/11/05 10:18:18;;;;;;;;;1.75;1.25;;;;;12.49;61.92;102332.22;5041022;28;45261;-67
2021/11/05 10:20:46;;;;;;;;;1.75;1.25;;;;;12.47;62.12;102347.25;5041078;28;45466;-67
2021/11/05 10:23:12;;;;;;;;;2.75;1.25;;;;;12.47;62.08;102341.97;5040790;28;45428;-67
2021/11/05 10:25:44;;;;;;;;;1.00;1.00;;;;;12.47;61.76;102342.84;5040215;28;45454;-67
2021/11/05 10:28:14;;;;;;;;;2.50;1.25;;;;;12.45;62.29;102347.34;5040559;28;45408;-67
2021/11/05 10:30:42;;;;;;;;;4.75;3.00;;;;;12.47;62.19;102341.97;5040677;28;45304;-67
2021/11/05 10:33:10;;;;;;;;;5.75;2.50;;;;;12.44;62.38;102348.25;5034836;28;45471;-64
2021/11/05 10:35:38;;;;;;;;;2.25;1.00;;;;;12.35;61.82;102346.00;5016966;28;45478;-68
2021/11/05 10:38:06;;;;;;;;;15.00;8.00;;;;;12.29;61.49;102349.75;5035474;28;45998;-69
2021/11/05 10:40:42;;;;;;;;;21.00;15.75;;;;;12.25;61.31;102356.09;5037613;28;45526;-66
2021/11/05 10:43:09;;;;;;;;;3.75;1.00;;;;;12.25;61.67;102349.94;5034100;28;46251;-68
2021/11/05 10:45:38;;;;;;;;;7.75;3.50;;;;;12.21;61.67;102353.63;5036462;28;45359;-68
2021/11/05 10:48:09;;;;;;;;;3.75;2.50;;;;;12.17;61.37;102349.41;5037796;28;45448;-67
2021/11/05 10:50:50;;;;;;;;;1.25;0.75;;;;;12.25;61.80;102353.44;5037611;28;45663;-67
2021/11/05 10:53:29;;;;;;;;;1.00;1.00;;;;;12.37;61.51;102354.72;5036757;28;46177;-66
2021/11/05 10:56:02;;;;;;;;;1.50;1.00;;;;;12.45;61.48;102354.41;5038231;28;45484;-67
2021/11/05 10:58:29;;;;;;;;;1.00;0.50;;;;;12.51;61.34;102354.16;5034575;28;45395;-68
2021/11/05 11:01:00;;;;;;;;;4.50;1.00;;;;;12.57;61.38;102353.91;5038868;28;45376;-67
2021/11/05 11:03:31;;;;;;;;;4.25;0.75;;;;;12.56;61.13;102349.56;5036623;28;45414;-68
2021/11/05 11:06:06;;;;;;;;;0.75;0.00;;;;;12.53;60.25;102349.66;5038545;28;45606;-68
2021/11/05 11:08:38;;;;;;;;;1.00;1.00;;;;;12.46;60.31;102348.19;5041248;28;45438;-65
2021/11/05 11:11:28;;;;;;;;;4.00;0.75;;;;;12.42;59.65;102352.75;5033963;28;45470;-64
2021/11/05 11:14:02;;;;;;;;;0.00;0.00;;;;;12.38;59.86;102350.28;5036585;28;46150;-68
2021/11/05 11:16:33;;;;;;;;;0.75;0.75;;;;;12.33;60.16;102345.22;5036335;28;45390;-67
2021/11/05 11:19:05;;;;;;;;;3.00;0.00;;;;;12.38;59.80;102351.16;5033721;28;45237;-65
2021/11/05 11:21:36;;;;;;;;;0.00;0.00;;;;;12.49;60.09;102351.59;5037627;28;45443;-67